createdAt,value
2022-12-14T00:02:06.818Z,98277.15
2022-12-14T00:04:39.836Z,98273.32
2022-12-14T00:07:12.882Z,98272.70
2022-12-14T00:09:47.666Z,98277.02
2022-12-14T00:12:22.641Z,98270.55
2022-12-14T00:14:54.816Z,98273.20
2022-12-14T00:17:27.423Z,98272.13
2022-12-14T00:20:00.003Z,98272.17
2022-12-14T00:22:40.173Z,98269.20
2022-12-14T00:25:12.826Z,98263.70
2022-12-14T00:27:47.123Z,98258.02
2022-12-14T00:30:21.208Z,98262.59
2022-12-14T00:32:54.710Z,98266.38
2022-12-14T00:35:28.231Z,98263.27
2022-12-14T00:38:04.496Z,98265.33
2022-12-14T00:40:36.481Z,98259.45
2022-12-14T00:43:08.465Z,98261.44
2022-12-14T00:45:40.605Z,98260.77
2022-12-14T00:48:15.827Z,98260.23
2022-12-14T00:50:51.942Z,98263.27
2022-12-14T00:53:28.722Z,98260.85
2022-12-14T00:56:09.951Z,98256.70
2022-12-14T00:58:44.642Z,98257.86
2022-12-14T01:01:18.110Z,98256.77
2022-12-14T01:04:13.581Z,98258.34
2022-12-14T01:06:50.993Z,98254.97
2022-12-14T01:09:26.665Z,98254.55
2022-12-14T01:12:02.984Z,98253.34
2022-12-14T01:14:39.345Z,98253.87
2022-12-14T01:17:13.353Z,98256.90
2022-12-14T01:19:48.953Z,98257.19
2022-12-14T01:22:24.524Z,98257.80
2022-12-14T01:25:00.436Z,98258.10
2022-12-14T01:27:38.303Z,98246.52
2022-12-14T01:30:19.689Z,98244.06
2022-12-14T01:32:53.953Z,98244.16
2022-12-14T01:35:27.560Z,98237.04
2022-12-14T01:38:01.591Z,98230.20
2022-12-14T01:40:35.328Z,98217.22
2022-12-14T01:43:14.399Z,98219.50
2022-12-14T01:45:49.737Z,98221.45
2022-12-14T01:48:26.174Z,98220.03
2022-12-14T01:50:59.019Z,98220.54
2022-12-14T01:53:34.832Z,98213.77
2022-12-14T01:56:11.007Z,98216.94
2022-12-14T01:58:46.283Z,98219.38
2022-12-14T02:01:20.807Z,98219.54
2022-12-14T02:03:55.704Z,98217.48
2022-12-14T02:06:35.808Z,98218.20
2022-12-14T02:09:12.822Z,98215.84
2022-12-14T02:11:51.725Z,98211.92
2022-12-14T02:14:26.442Z,98206.71
2022-12-14T02:17:03.387Z,98209.98
2022-12-14T02:19:38.556Z,98207.84
2022-12-14T02:22:32.821Z,98204.44
2022-12-14T02:25:23.429Z,98203.32
2022-12-14T02:28:34.056Z,98203.61
2022-12-14T02:31:15.910Z,98195.77
2022-12-14T02:33:52.995Z,98200.40
2022-12-14T02:36:32.886Z,98199.32
2022-12-14T02:39:17.984Z,98200.54
2022-12-14T02:41:56.783Z,98195.15
2022-12-14T02:44:35.695Z,98195.86
2022-12-14T02:47:13.026Z,98194.52
2022-12-14T02:49:59.795Z,98190.25
2022-12-14T02:52:43.084Z,98184.48
2022-12-14T02:55:23.152Z,98182.42
2022-12-14T02:58:02.271Z,98180.30
2022-12-14T03:00:37.090Z,98178.36
2022-12-14T03:03:10.592Z,98176.18
2022-12-14T03:05:43.486Z,98175.89
2022-12-14T03:08:17.069Z,98174.23
2022-12-14T03:10:51.860Z,98167.44
2022-12-14T03:13:30.144Z,98173.33
2022-12-14T03:16:09.421Z,98178.22
2022-12-14T03:18:51.664Z,98177.49
2022-12-14T03:21:29.277Z,98175.68
2022-12-14T03:24:06.107Z,98173.54
2022-12-14T03:26:47.218Z,98176.58
2022-12-14T03:29:24.459Z,98169.95
2022-12-14T03:31:57.834Z,98173.13
2022-12-14T03:34:33.328Z,98171.55
2022-12-14T03:37:13.500Z,98170.89
2022-12-14T03:39:46.890Z,98165.40
2022-12-14T03:42:24.975Z,98165.17
2022-12-14T03:48:34.524Z,98165.39
2022-12-14T03:51:13.064Z,98168.30
2022-12-14T03:53:51.085Z,98169.19
2022-12-14T03:56:28.453Z,98175.79
2022-12-14T03:59:06.720Z,98178.98
2022-12-14T04:01:44.907Z,98177.55
2022-12-14T04:04:20.577Z,98166.34
2022-12-14T04:06:57.827Z,98164.64
2022-12-14T04:09:34.829Z,98155.23
2022-12-14T04:12:32.174Z,98157.59
2022-12-14T04:15:25.246Z,98156.93
2022-12-14T04:18:19.097Z,98154.98
2022-12-14T04:20:56.698Z,98150.45
2022-12-14T04:23:53.343Z,98153.84
2022-12-14T04:26:33.624Z,98153.08
2022-12-14T04:29:29.944Z,98147.65
2022-12-14T04:32:11.485Z,98145.74
2022-12-14T04:34:46.234Z,98142.05
2022-12-14T04:37:24.752Z,98137.09
2022-12-14T04:39:59.602Z,98139.54
2022-12-14T04:42:36.491Z,98134.39
2022-12-14T04:45:14.534Z,98133.18
2022-12-14T04:47:55.748Z,98132.44
2022-12-14T04:50:35.431Z,98132.33
2022-12-14T04:53:13.273Z,98127.13
2022-12-14T04:55:50.151Z,98122.30
2022-12-14T04:58:27.515Z,98117.77
2022-12-14T05:01:09.806Z,98110.94
2022-12-14T05:03:50.021Z,98112.22
2022-12-14T05:06:28.850Z,98102.45
2022-12-14T05:09:12.719Z,98096.72
2022-12-14T05:11:54.289Z,98091.61
2022-12-14T05:14:29.801Z,98085.65
2022-12-14T05:17:08.473Z,98078.35
2022-12-14T05:19:48.754Z,98076.44
2022-12-14T05:22:22.004Z,98072.08
2022-12-14T05:24:54.583Z,98066.77
2022-12-14T05:27:26.633Z,98071.48
2022-12-14T05:30:00.087Z,98068.02
2022-12-14T05:32:35.292Z,98068.90
2022-12-14T05:35:11.214Z,98069.57
2022-12-14T05:37:44.535Z,98073.92
2022-12-14T05:40:17.330Z,98072.67
2022-12-14T05:42:55.629Z,98078.79
2022-12-14T05:45:29.352Z,98078.31
2022-12-14T05:48:01.580Z,98075.56
2022-12-14T05:50:34.901Z,98073.99
2022-12-14T05:53:08.659Z,98074.61
2022-12-14T05:55:42.724Z,98080.97
2022-12-14T05:58:16.852Z,98075.56
2022-12-14T06:00:53.888Z,98077.41
2022-12-14T06:03:30.236Z,98074.10
2022-12-14T06:06:05.724Z,98071.98
2022-12-14T06:08:39.716Z,98070.45
2022-12-14T06:11:13.967Z,98070.98
2022-12-14T06:13:49.327Z,98069.19
2022-12-14T06:16:26.600Z,98067.76
2022-12-14T06:19:00.551Z,98069.76
2022-12-14T06:21:35.250Z,98070.33
2022-12-14T06:24:09.907Z,98067.54
2022-12-14T06:26:42.483Z,98065.10
2022-12-14T06:29:18.486Z,98067.02
2022-12-14T06:31:53.700Z,98061.45
2022-12-14T06:34:28.764Z,98061.29
2022-12-14T06:37:03.389Z,98056.65
2022-12-14T06:39:37.752Z,98047.13
2022-12-14T06:42:11.970Z,98047.48
2022-12-14T06:44:48.392Z,98049.36
2022-12-14T06:47:21.416Z,98054.52
2022-12-14T06:49:55.012Z,98051.45
2022-12-14T06:52:28.081Z,98049.88
2022-12-14T06:55:01.448Z,98056.24
2022-12-14T06:57:33.991Z,98057.30
2022-12-14T07:00:12.587Z,98049.79
2022-12-14T07:02:45.656Z,98048.31
2022-12-14T07:05:20.730Z,98041.84
2022-12-14T07:07:52.749Z,98042.00
2022-12-14T07:10:26.674Z,98041.70
2022-12-14T07:12:59.957Z,98036.81
2022-12-14T07:15:35.548Z,98029.91
2022-12-14T07:18:08.870Z,98027.08
2022-12-14T07:20:43.636Z,98027.92
2022-12-14T07:23:17.399Z,98022.13
2022-12-14T07:25:50.990Z,98020.27
2022-12-14T07:28:24.520Z,98019.82
2022-12-14T07:31:01.685Z,98018.15
2022-12-14T07:33:35.522Z,98019.79
2022-12-14T07:36:09.914Z,98016.30
2022-12-14T07:38:43.460Z,98019.46
2022-12-14T07:41:22.009Z,98015.73
2022-12-14T07:43:57.369Z,98014.90
2022-12-14T07:46:32.302Z,98012.23
2022-12-14T07:49:05.389Z,98009.84
2022-12-14T07:51:41.305Z,98015.27
2022-12-14T07:54:14.452Z,98017.77
2022-12-14T07:56:46.372Z,98017.50
2022-12-14T07:59:24.536Z,98019.66
2022-12-14T08:01:56.802Z,98013.46
2022-12-14T08:04:30.326Z,98009.95
2022-12-14T08:07:05.699Z,98004.99
2022-12-14T08:09:37.821Z,98004.17
2022-12-14T08:12:11.161Z,97999.41
2022-12-14T08:14:44.623Z,97989.73
2022-12-14T08:17:17.077Z,97984.02
2022-12-14T08:19:52.015Z,97993.55
2022-12-14T08:22:28.189Z,97990.83
2022-12-14T08:25:01.528Z,97990.16
2022-12-14T08:27:37.244Z,97997.09
2022-12-14T08:30:13.007Z,97994.84
2022-12-14T08:32:45.412Z,97990.97
2022-12-14T08:35:18.493Z,97989.58
2022-12-14T08:37:50.721Z,97994.67
2022-12-14T08:40:23.242Z,97997.52
2022-12-14T08:42:55.092Z,97997.90
2022-12-14T08:45:27.300Z,97987.90
2022-12-14T08:48:02.625Z,97989.83
2022-12-14T08:50:34.909Z,97993.46
2022-12-14T08:53:09.119Z,97989.41
2022-12-14T08:55:44.008Z,97992.38
2022-12-14T08:58:19.422Z,97990.94
2022-12-14T09:00:52.039Z,97989.11
2022-12-14T09:03:27.447Z,97977.81
2022-12-14T09:06:08.234Z,97980.47
2022-12-14T09:08:41.195Z,97978.09
2022-12-14T09:11:18.088Z,97979.38
2022-12-14T09:13:54.458Z,97975.09
2022-12-14T09:16:27.794Z,97969.82
2022-12-14T09:19:02.712Z,97970.15
2022-12-14T09:21:38.568Z,97962.83
2022-12-14T09:24:12.074Z,97962.36
2022-12-14T09:26:47.036Z,97963.72
2022-12-14T09:29:21.223Z,97968.57
2022-12-14T09:31:53.523Z,97967.17
2022-12-14T09:34:27.343Z,97957.31
2022-12-14T09:37:04.469Z,97948.76
2022-12-14T09:39:38.144Z,97938.84
2022-12-14T09:42:23.507Z,97934.36
2022-12-14T09:45:03.555Z,97934.51
2022-12-14T09:47:42.509Z,97935.57
2022-12-14T09:50:21.676Z,97939.02
2022-12-14T09:52:56.132Z,97933.21
2022-12-14T09:55:31.397Z,97926.88
2022-12-14T09:58:10.727Z,97930.46
2022-12-14T10:00:53.323Z,97926.79
2022-12-14T10:03:39.803Z,97923.11
2022-12-14T10:06:33.308Z,97923.63
2022-12-14T10:09:14.738Z,97919.25
2022-12-14T10:11:55.148Z,97919.40
2022-12-14T10:14:37.243Z,97918.36
2022-12-14T10:17:17.839Z,97912.06
2022-12-14T10:19:56.527Z,97910.27
2022-12-14T10:22:30.848Z,97911.42
2022-12-14T10:25:11.658Z,97907.07
2022-12-14T10:28:09.938Z,97904.80
2022-12-14T10:30:41.631Z,97901.04
2022-12-14T10:33:21.719Z,97894.66
2022-12-14T10:35:56.241Z,97887.95
2022-12-14T10:38:35.132Z,97884.38
2022-12-14T10:41:17.407Z,97883.98
2022-12-14T10:43:56.349Z,97878.95
2022-12-14T10:46:35.324Z,97872.90
2022-12-14T10:49:17.573Z,97864.33
2022-12-14T10:51:50.986Z,97862.79
2022-12-14T10:54:29.261Z,97861.83
2022-12-14T10:57:04.334Z,97851.70
2022-12-14T11:00:03.044Z,97847.66
2022-12-14T11:02:39.554Z,97842.55
2022-12-14T11:05:36.039Z,97837.35
2022-12-14T11:08:10.705Z,97830.02
2022-12-14T11:10:44.519Z,97825.78
2022-12-14T11:13:20.410Z,97824.75
2022-12-14T11:16:15.192Z,97821.67
2022-12-14T11:18:49.278Z,97814.70
2022-12-14T11:21:25.163Z,97813.38
2022-12-14T11:23:59.044Z,97811.42
2022-12-14T11:26:34.425Z,97807.77
2022-12-14T11:29:19.540Z,97801.94
2022-12-14T11:31:54.775Z,97803.47
2022-12-14T11:34:37.994Z,97790.22
2022-12-14T11:37:21.572Z,97786.45
2022-12-14T11:39:55.764Z,97790.35
2022-12-14T11:42:29.413Z,97791.59
2022-12-14T11:45:30.673Z,97784.16
2022-12-14T11:48:29.872Z,97789.38
2022-12-14T11:51:13.451Z,97786.58
2022-12-14T11:53:47.783Z,97783.06
2022-12-14T11:56:22.158Z,97774.27
2022-12-14T11:58:56.320Z,97769.39
2022-12-14T12:01:29.267Z,97764.79
2022-12-14T12:04:03.018Z,97760.23
2022-12-14T12:06:40.272Z,97753.33
2022-12-14T12:09:25.168Z,97742.55
2022-12-14T12:11:58.205Z,97737.07
2022-12-14T12:14:34.613Z,97732.80
2022-12-14T12:17:21.596Z,97716.48
2022-12-14T12:19:54.774Z,97711.27
2022-12-14T12:22:31.525Z,97699.96
2022-12-14T12:28:03.335Z,97690.02
2022-12-14T12:30:37.418Z,97677.56
2022-12-14T12:33:21.222Z,97681.18
2022-12-14T12:35:57.955Z,97676.56
2022-12-14T12:38:43.699Z,97667.68
2022-12-14T12:41:28.401Z,97661.52
2022-12-14T12:44:06.725Z,97650.58
2022-12-14T12:47:07.156Z,97647.14
2022-12-14T12:49:38.307Z,97644.98
2022-12-14T12:52:22.765Z,97633.75
2022-12-14T12:55:02.015Z,97626.98
2022-12-14T12:57:40.043Z,97621.69
2022-12-14T13:00:19.319Z,97614.83
2022-12-14T13:02:56.850Z,97609.16
2022-12-14T13:05:48.465Z,97608.57
2022-12-14T13:08:27.314Z,97611.15
2022-12-14T13:11:25.722Z,97613.06
2022-12-14T13:14:03.575Z,97613.41
2022-12-14T13:16:37.908Z,97607.36
2022-12-14T13:22:16.856Z,97597.92
2022-12-14T13:24:57.231Z,97601.83
2022-12-14T13:28:00.128Z,97596.13
2022-12-14T13:30:46.575Z,97592.77
2022-12-14T13:34:03.856Z,97592.61
2022-12-14T13:37:14.010Z,97583.91
2022-12-14T13:40:18.560Z,97576.81
2022-12-14T13:42:56.795Z,97573.73
2022-12-14T13:45:35.924Z,97563.34
2022-12-14T13:48:09.724Z,97548.85
2022-12-14T13:50:56.002Z,97538.99
2022-12-14T13:53:37.631Z,97529.88
2022-12-14T13:56:11.223Z,97523.86
2022-12-14T13:58:45.402Z,97520.85
2022-12-14T14:01:38.651Z,97516.45
2022-12-14T14:04:29.703Z,97519.31
2022-12-14T14:07:40.030Z,97512.65
2022-12-14T14:10:32.051Z,97510.26
2022-12-14T14:13:41.409Z,97501.71
2022-12-14T14:16:28.310Z,97500.20
2022-12-14T14:19:15.686Z,97511.04
2022-12-14T14:25:00.798Z,97501.98
2022-12-14T14:27:39.215Z,97480.48
2022-12-14T14:30:26.304Z,97472.93
2022-12-14T14:33:19.929Z,97471.03
2022-12-14T14:35:56.092Z,97468.58
2022-12-14T14:38:35.171Z,97458.84
2022-12-14T14:41:17.698Z,97474.01
2022-12-14T14:43:53.319Z,97484.57
2022-12-14T14:46:37.782Z,97498.67
2022-12-14T14:49:24.389Z,97498.23
2022-12-14T14:52:02.729Z,97493.21
2022-12-14T14:55:21.276Z,97489.13
2022-12-14T14:58:00.461Z,97474.92
2022-12-14T15:00:43.294Z,97458.10
2022-12-14T15:03:17.818Z,97434.44
2022-12-14T15:05:51.763Z,97441.70
2022-12-14T15:08:33.317Z,97451.77
2022-12-14T15:11:15.186Z,97450.66
2022-12-14T15:13:54.994Z,97443.21
2022-12-14T15:16:31.564Z,97432.13
2022-12-14T15:19:28.563Z,97429.39
2022-12-14T15:22:04.958Z,97426.12
2022-12-14T15:24:41.286Z,97420.69
2022-12-14T15:27:24.037Z,97422.80
2022-12-14T15:30:00.769Z,97422.41
2022-12-14T15:32:36.233Z,97412.82
2022-12-14T15:35:14.817Z,97408.77
2022-12-14T15:37:56.482Z,97409.21
2022-12-14T15:40:35.773Z,97406.54
2022-12-14T15:43:19.609Z,97403.46
2022-12-14T15:45:55.453Z,97401.62
2022-12-14T15:48:30.310Z,97397.61
2022-12-14T15:51:09.518Z,97393.88
2022-12-14T15:53:50.389Z,97393.91
2022-12-14T15:56:29.480Z,97393.52
2022-12-14T15:59:04.580Z,97389.23
2022-12-14T16:01:39.957Z,97395.55
2022-12-14T16:04:17.057Z,97394.42
2022-12-14T16:06:52.198Z,97395.02
2022-12-14T16:09:28.222Z,97383.45
2022-12-14T16:12:03.779Z,97382.92
2022-12-14T16:14:44.385Z,97378.39
2022-12-14T16:17:21.965Z,97377.02
2022-12-14T16:20:00.282Z,97378.32
2022-12-14T16:22:36.032Z,97373.46
2022-12-14T16:25:19.345Z,97365.80
2022-12-14T16:27:53.013Z,97367.29
2022-12-14T16:30:33.461Z,97367.58
2022-12-14T16:33:16.905Z,97376.78
2022-12-14T16:35:59.814Z,97376.61
2022-12-14T16:38:32.972Z,97372.60
2022-12-14T16:41:06.493Z,97372.56
2022-12-14T16:43:42.439Z,97367.28
2022-12-14T16:46:18.447Z,97359.59
2022-12-14T16:49:24.055Z,97360.38
2022-12-14T16:52:07.681Z,97357.88
2022-12-14T16:54:41.340Z,97356.38
2022-12-14T16:57:21.845Z,97354.95
2022-12-14T17:00:00.551Z,97347.51
2022-12-14T17:02:35.866Z,97336.90
2022-12-14T17:05:16.498Z,97348.32
2022-12-14T17:07:50.546Z,97353.42
2022-12-14T17:10:27.049Z,97349.54
2022-12-14T17:13:00.523Z,97350.59
2022-12-14T17:15:35.612Z,97346.53
2022-12-14T17:18:11.790Z,97337.59
2022-12-14T17:20:45.163Z,97334.23
2022-12-14T17:23:21.269Z,97326.77
2022-12-14T17:25:53.590Z,97335.50
2022-12-14T17:28:31.669Z,97338.37
2022-12-14T17:31:06.228Z,97332.73
2022-12-14T17:33:40.972Z,97322.77
2022-12-14T17:36:13.129Z,97330.83
2022-12-14T17:38:49.195Z,97327.95
2022-12-14T17:41:26.602Z,97327.56
2022-12-14T17:44:01.538Z,97322.70
2022-12-14T17:46:34.933Z,97323.02
2022-12-14T17:49:12.305Z,97328.58
2022-12-14T17:51:46.281Z,97326.03
2022-12-14T17:54:24.625Z,97321.89
2022-12-14T17:57:00.791Z,97317.77
2022-12-14T17:59:34.087Z,97316.59
2022-12-14T18:02:10.142Z,97312.15
2022-12-14T18:04:43.313Z,97310.33
2022-12-14T18:07:18.223Z,97303.46
2022-12-14T18:09:53.623Z,97295.44
2022-12-14T18:12:26.290Z,97289.95
2022-12-14T18:15:02.717Z,97290.45
2022-12-14T18:17:36.048Z,97287.95
2022-12-14T18:20:10.735Z,97279.76
2022-12-14T18:22:49.592Z,97273.30
2022-12-14T18:25:29.561Z,97266.39
2022-12-14T18:28:03.280Z,97269.23
2022-12-14T18:30:45.865Z,97273.96
2022-12-14T18:33:24.129Z,97266.95
2022-12-14T18:35:58.319Z,97266.79
2022-12-14T18:38:30.617Z,97277.64
2022-12-14T18:41:06.669Z,97268.09
2022-12-14T18:43:43.693Z,97262.48
2022-12-14T18:46:18.137Z,97252.39
2022-12-14T18:48:51.750Z,97254.86
2022-12-14T18:51:27.304Z,97251.83
2022-12-14T18:54:02.531Z,97248.32
2022-12-14T18:56:38.900Z,97246.88
2022-12-14T18:59:17.621Z,97243.80
2022-12-14T19:01:53.210Z,97238.16
2022-12-14T19:04:35.102Z,97231.23
2022-12-14T19:07:08.098Z,97229.63
2022-12-14T19:09:41.055Z,97234.20
2022-12-14T19:12:15.649Z,97233.87
2022-12-14T19:14:53.652Z,97218.48
2022-12-14T19:17:27.371Z,97212.94
2022-12-14T19:20:00.868Z,97205.77
2022-12-14T19:22:34.540Z,97199.20
2022-12-14T19:25:13.068Z,97191.09
2022-12-14T19:30:45.142Z,97205.51
2022-12-14T19:33:17.924Z,97199.11
2022-12-14T19:35:52.652Z,97199.02
2022-12-14T19:38:28.503Z,97195.94
2022-12-14T19:41:05.201Z,97190.67
2022-12-14T19:43:38.145Z,97191.77
2022-12-14T19:46:17.593Z,97190.95
2022-12-14T19:48:51.248Z,97195.82
2022-12-14T19:51:24.404Z,97194.55
2022-12-14T19:53:57.714Z,97191.59
2022-12-14T19:56:30.431Z,97190.16
2022-12-14T19:59:04.366Z,97191.38
2022-12-14T20:01:44.733Z,97190.55
2022-12-14T20:04:22.603Z,97187.62
2022-12-14T20:06:55.976Z,97182.48
2022-12-14T20:09:31.408Z,97180.52
2022-12-14T20:12:04.885Z,97180.89
2022-12-14T20:14:41.270Z,97176.03
2022-12-14T20:17:14.779Z,97175.02
2022-12-14T20:19:48.712Z,97184.14
2022-12-14T20:22:22.725Z,97188.02
2022-12-14T20:24:55.952Z,97186.10
2022-12-14T20:27:28.799Z,97181.33
2022-12-14T20:30:02.834Z,97179.81
2022-12-14T20:32:35.423Z,97188.44
2022-12-14T20:35:12.384Z,97187.08
2022-12-14T20:37:45.724Z,97197.11
2022-12-14T20:40:18.957Z,97199.15
2022-12-14T20:42:52.548Z,97195.29
2022-12-14T20:45:26.054Z,97200.14
2022-12-14T20:47:59.431Z,97203.60
2022-12-14T20:50:31.671Z,97205.33
2022-12-14T20:53:09.069Z,97206.58
2022-12-14T20:55:41.751Z,97204.66
2022-12-14T20:58:14.728Z,97203.48
2022-12-14T21:00:47.762Z,97203.12
2022-12-14T21:03:23.210Z,97199.19
2022-12-14T21:05:58.437Z,97199.94
2022-12-14T21:08:31.766Z,97206.45
2022-12-14T21:11:21.788Z,97209.35
2022-12-14T21:13:58.252Z,97211.92
2022-12-14T21:16:30.545Z,97210.77
2022-12-14T21:19:03.283Z,97208.70
2022-12-14T21:21:37.524Z,97213.52
2022-12-14T21:24:17.684Z,97216.16
2022-12-14T21:27:08.663Z,97210.09
2022-12-14T21:29:42.518Z,97209.45
2022-12-14T21:32:16.313Z,97201.77
2022-12-14T21:34:50.807Z,97207.23
2022-12-14T21:37:24.522Z,97204.52
2022-12-14T21:39:57.343Z,97213.16
2022-12-14T21:42:31.661Z,97210.91
2022-12-14T21:45:06.809Z,97211.73
2022-12-14T21:47:41.620Z,97220.08
2022-12-14T21:50:16.979Z,97224.29
2022-12-14T21:52:49.651Z,97225.10
2022-12-14T21:55:24.353Z,97229.83
2022-12-14T21:58:14.536Z,97224.73
2022-12-14T22:00:47.208Z,97214.67
2022-12-14T22:03:21.013Z,97207.78
2022-12-14T22:05:53.304Z,97211.02
2022-12-14T22:08:30.095Z,97210.16
2022-12-14T22:11:06.147Z,97204.79
2022-12-14T22:13:39.943Z,97197.45
2022-12-14T22:16:15.612Z,97209.45
2022-12-14T22:18:50.243Z,97207.18
2022-12-14T22:21:23.857Z,97210.83
2022-12-14T22:23:57.379Z,97207.36
2022-12-14T22:26:31.527Z,97196.85
2022-12-14T22:29:04.861Z,97205.86
2022-12-14T22:31:40.990Z,97206.23
2022-12-14T22:34:19.097Z,97203.86
2022-12-14T22:36:55.897Z,97203.84
2022-12-14T22:39:30.931Z,97206.44
2022-12-14T22:42:06.859Z,97223.40
2022-12-14T22:44:45.137Z,97226.27
2022-12-14T22:47:18.047Z,97225.41
2022-12-14T22:49:51.567Z,97222.48
2022-12-14T22:52:25.069Z,97221.66
2022-12-14T22:54:57.988Z,97222.17
2022-12-14T22:57:39.522Z,97218.64
2022-12-14T23:00:17.015Z,97218.39
2022-12-14T23:02:50.913Z,97211.44
2022-12-14T23:05:24.472Z,97213.80
2022-12-14T23:07:59.464Z,97210.86
2022-12-14T23:10:51.083Z,97211.89
2022-12-14T23:13:43.886Z,97212.00
2022-12-14T23:16:37.888Z,97213.61
2022-12-14T23:19:30.140Z,97212.54
2022-12-14T23:22:21.790Z,97212.33
2022-12-14T23:25:15.592Z,97213.88
2022-12-14T23:28:08.626Z,97218.98
2022-12-14T23:30:59.915Z,97216.86
2022-12-14T23:33:52.929Z,97210.27
2022-12-14T23:36:46.545Z,97211.77
2022-12-14T23:39:39.955Z,97216.02
2022-12-14T23:42:35.651Z,97221.18
2022-12-14T23:45:28.296Z,97222.75
2022-12-14T23:48:20.344Z,97223.45
2022-12-14T23:51:10.671Z,97231.45
2022-12-14T23:54:06.854Z,97233.91
2022-12-14T23:56:58.088Z,97242.35
2022-12-14T23:59:51.568Z,97244.59
